createdAt,value
2023-02-17T00:01:21.206Z,74.80
2023-02-17T00:03:49.544Z,75.72
2023-02-17T00:06:18.672Z,79.95
2023-02-17T00:08:46.669Z,84.88
2023-02-17T00:11:23.092Z,81.18
2023-02-17T00:13:49.816Z,81.15
2023-02-17T00:16:19.972Z,83.78
2023-02-17T00:18:47.856Z,80.60
2023-02-17T00:21:22.172Z,87.00
2023-02-17T00:23:49.666Z,78.85
2023-02-17T00:26:18.159Z,77.43
2023-02-17T00:28:45.691Z,85.25
2023-02-17T00:31:22.707Z,83.80
2023-02-17T00:33:50.000Z,88.63
2023-02-17T00:36:25.267Z,90.50
2023-02-17T00:38:54.885Z,82.78
2023-02-17T00:41:31.629Z,84.88
2023-02-17T00:43:59.460Z,83.55
2023-02-17T00:46:26.843Z,82.65
2023-02-17T00:48:54.267Z,89.10
2023-02-17T00:51:21.189Z,86.80
2023-02-17T00:53:47.852Z,85.55
2023-02-17T00:56:15.041Z,90.45
2023-02-17T00:58:42.155Z,91.35
2023-02-17T01:01:10.104Z,91.20
2023-02-17T01:03:36.930Z,88.32
2023-02-17T01:06:08.696Z,88.38
2023-02-17T01:08:42.685Z,83.47
2023-02-17T01:11:17.757Z,87.20
2023-02-17T01:13:44.566Z,83.95
2023-02-17T01:16:46.662Z,86.28
2023-02-17T01:19:19.215Z,87.30
2023-02-17T01:21:51.908Z,88.47
2023-02-17T01:24:18.911Z,80.70
2023-02-17T01:26:55.588Z,89.28
2023-02-17T01:29:31.157Z,89.07
2023-02-17T01:31:57.891Z,89.07
2023-02-17T01:34:24.657Z,92.75
2023-02-17T01:36:51.813Z,86.13
2023-02-17T01:39:18.691Z,94.45
2023-02-17T01:41:45.757Z,89.50
2023-02-17T01:44:17.060Z,95.25
2023-02-17T01:46:51.097Z,88.97
2023-02-17T01:49:31.490Z,86.95
2023-02-17T01:52:08.545Z,85.90
2023-02-17T01:55:00.204Z,88.50
2023-02-17T01:57:32.868Z,85.30
2023-02-17T02:00:00.175Z,83.65
2023-02-17T02:02:30.397Z,95.60
2023-02-17T02:04:57.484Z,92.68
2023-02-17T02:07:33.012Z,94.07
2023-02-17T02:09:59.800Z,86.05
2023-02-17T02:12:32.871Z,93.15
2023-02-17T02:15:04.018Z,83.28
2023-02-17T02:18:05.724Z,83.28
2023-02-17T02:23:50.587Z,88.85
2023-02-17T02:26:45.096Z,83.28
2023-02-17T02:29:25.989Z,83.20
2023-02-17T02:32:01.841Z,84.10
2023-02-17T02:34:37.861Z,84.80
2023-02-17T02:37:08.662Z,87.50
2023-02-17T02:39:45.543Z,86.55
2023-02-17T02:42:16.408Z,80.40
2023-02-17T02:44:43.797Z,78.68
2023-02-17T02:47:32.534Z,87.38
2023-02-17T02:49:59.281Z,86.93
2023-02-17T02:52:47.084Z,82.35
2023-02-17T02:55:39.823Z,80.97
2023-02-17T03:01:06.368Z,84.35
2023-02-17T03:03:44.290Z,81.35
2023-02-17T03:06:15.878Z,80.85
2023-02-17T03:08:52.838Z,75.80
2023-02-17T03:11:32.590Z,75.30
2023-02-17T03:14:13.837Z,86.45
2023-02-17T03:16:42.834Z,84.00
2023-02-17T03:19:10.998Z,79.03
2023-02-17T03:21:58.941Z,79.65
2023-02-17T03:24:26.111Z,81.07
2023-02-17T03:27:02.034Z,96.07
2023-02-17T03:29:28.958Z,78.47
2023-02-17T03:31:56.225Z,78.18
2023-02-17T03:34:23.079Z,80.20
2023-02-17T03:36:50.338Z,81.38
2023-02-17T03:39:17.088Z,82.38
2023-02-17T03:41:43.864Z,77.80
2023-02-17T03:44:10.690Z,79.38
2023-02-17T03:46:40.778Z,79.45
2023-02-17T03:49:07.536Z,74.35
2023-02-17T03:51:34.378Z,72.47
2023-02-17T03:54:01.226Z,73.10
2023-02-17T03:56:28.329Z,72.50
2023-02-17T03:58:55.100Z,70.80
2023-02-17T04:01:22.331Z,71.47
2023-02-17T04:03:49.243Z,69.32
2023-02-17T04:08:48.397Z,62.63
2023-02-17T04:13:41.850Z,62.38
2023-02-17T04:16:12.931Z,54.13
2023-02-17T04:18:39.860Z,55.20
2023-02-17T04:21:07.199Z,59.63
2023-02-17T04:23:38.494Z,56.75
2023-02-17T04:26:07.414Z,60.50
2023-02-17T04:28:35.128Z,64.40
2023-02-17T04:31:02.022Z,60.92
2023-02-17T04:33:31.483Z,58.80
2023-02-17T04:35:59.937Z,56.25
2023-02-17T04:38:37.350Z,55.65
2023-02-17T04:41:06.699Z,50.88
2023-02-17T04:43:34.495Z,50.88
2023-02-17T04:46:01.276Z,49.42
2023-02-17T04:48:28.108Z,53.03
2023-02-17T04:50:54.853Z,49.08
2023-02-17T04:53:21.893Z,34.38
2023-02-17T04:55:53.398Z,40.28
2023-02-17T04:58:21.091Z,34.38
2023-02-17T05:00:49.753Z,35.28
2023-02-17T05:03:17.971Z,29.00
2023-02-17T05:05:45.092Z,30.77
2023-02-17T05:08:12.983Z,32.65
2023-02-17T05:10:39.789Z,29.50
2023-02-17T05:13:09.796Z,25.58
2023-02-17T05:15:36.688Z,26.55
2023-02-17T05:18:06.217Z,22.63
2023-02-17T05:20:33.468Z,24.73
2023-02-17T05:23:00.199Z,22.73
2023-02-17T05:25:26.959Z,20.80
2023-02-17T05:27:53.659Z,28.70
2023-02-17T05:30:27.141Z,22.67
2023-02-17T05:32:53.961Z,21.08
2023-02-17T05:35:20.784Z,17.17
2023-02-17T05:37:47.494Z,20.70
2023-02-17T05:40:14.234Z,13.60
2023-02-17T05:42:40.997Z,17.25
2023-02-17T05:45:08.592Z,19.10
2023-02-17T05:47:35.824Z,14.10
2023-02-17T05:50:04.191Z,16.98
2023-02-17T05:52:34.133Z,16.58
2023-02-17T05:55:03.462Z,20.15
2023-02-17T05:57:30.846Z,16.45
2023-02-17T06:00:00.671Z,18.92
2023-02-17T06:02:30.308Z,13.18
2023-02-17T06:04:57.217Z,16.27
2023-02-17T06:07:24.345Z,16.13
2023-02-17T06:09:51.160Z,16.20
2023-02-17T06:12:18.150Z,15.02
2023-02-17T06:14:44.845Z,13.07
2023-02-17T06:19:41.632Z,18.15
2023-02-17T06:22:14.297Z,16.27
2023-02-17T06:24:41.032Z,18.70
2023-02-17T06:27:08.393Z,16.90
2023-02-17T06:29:35.117Z,14.07
2023-02-17T06:32:11.319Z,15.13
2023-02-17T06:34:38.220Z,13.68
2023-02-17T06:37:05.330Z,17.98
2023-02-17T06:39:32.195Z,17.20
2023-02-17T06:42:01.285Z,13.88
2023-02-17T06:44:28.565Z,14.05
2023-02-17T06:46:55.457Z,16.92
2023-02-17T06:49:22.322Z,16.33
2023-02-17T06:51:49.227Z,13.90
2023-02-17T06:54:16.986Z,19.25
2023-02-17T06:56:43.772Z,12.68
2023-02-17T06:59:12.771Z,17.10
2023-02-17T07:01:40.240Z,13.20
2023-02-17T07:04:09.937Z,17.95
2023-02-17T07:06:37.220Z,11.63
2023-02-17T07:09:04.014Z,13.85
2023-02-17T07:11:35.101Z,15.20
2023-02-17T07:14:03.074Z,10.52
2023-02-17T07:16:29.835Z,14.88
2023-02-17T07:18:56.712Z,15.93
2023-02-17T07:21:23.620Z,15.98
2023-02-17T07:23:53.410Z,11.60
2023-02-17T07:26:20.170Z,10.43
2023-02-17T07:28:47.070Z,13.50
2023-02-17T07:31:17.207Z,14.13
2023-02-17T07:33:47.419Z,15.52
2023-02-17T07:36:17.088Z,13.20
2023-02-17T07:38:50.301Z,15.90
2023-02-17T07:41:21.825Z,12.52
2023-02-17T07:43:49.248Z,10.20
2023-02-17T07:46:17.104Z,13.68
2023-02-17T07:48:44.016Z,15.27
2023-02-17T07:51:14.507Z,15.68
2023-02-17T07:53:51.132Z,13.55
2023-02-17T07:56:24.411Z,13.50
2023-02-17T07:58:51.314Z,12.55
2023-02-17T08:01:21.173Z,9.98
2023-02-17T08:03:48.911Z,11.68
2023-02-17T08:06:17.161Z,11.25
2023-02-17T08:09:03.459Z,11.98
2023-02-17T08:11:50.109Z,20.58
2023-02-17T08:14:26.783Z,12.82
2023-02-17T08:16:53.963Z,13.65
2023-02-17T08:19:21.829Z,9.98
2023-02-17T08:21:48.905Z,10.27
2023-02-17T08:24:16.961Z,14.43
2023-02-17T08:26:43.715Z,11.65
2023-02-17T08:29:10.858Z,9.63
2023-02-17T08:31:38.346Z,12.32
2023-02-17T08:34:13.492Z,10.20
2023-02-17T08:36:40.577Z,13.75
2023-02-17T08:39:17.031Z,12.80
2023-02-17T08:41:44.768Z,12.68
2023-02-17T08:46:50.382Z,16.38
2023-02-17T08:49:20.834Z,11.00
2023-02-17T08:51:47.937Z,9.45
2023-02-17T08:56:43.060Z,11.00
2023-02-17T08:59:11.425Z,10.18
2023-02-17T09:01:47.368Z,8.77
2023-02-17T09:06:55.513Z,6.43
2023-02-17T09:09:27.555Z,7.68
2023-02-17T09:11:57.106Z,8.93
2023-02-17T09:14:27.998Z,7.75
2023-02-17T09:16:55.563Z,7.95
2023-02-17T09:19:23.214Z,8.50
2023-02-17T09:21:50.309Z,9.35
2023-02-17T09:24:17.763Z,8.05
2023-02-17T09:26:44.619Z,6.43
2023-02-17T09:29:11.627Z,8.48
2023-02-17T09:31:41.282Z,7.30
2023-02-17T09:34:08.082Z,8.25
2023-02-17T09:36:42.924Z,6.18
2023-02-17T09:39:17.229Z,6.30
2023-02-17T09:41:55.525Z,7.07
2023-02-17T09:44:45.088Z,6.60
2023-02-17T09:47:16.468Z,5.40
2023-02-17T09:49:51.345Z,5.32
2023-02-17T09:52:28.775Z,6.32
2023-02-17T09:55:07.913Z,3.85
2023-02-17T09:58:07.139Z,4.53
2023-02-17T10:00:43.365Z,4.18
2023-02-17T10:03:18.393Z,5.82
2023-02-17T10:06:12.252Z,4.45
2023-02-17T10:09:13.011Z,4.90
2023-02-17T10:11:50.421Z,4.43
2023-02-17T10:14:28.708Z,6.18
2023-02-17T10:17:07.058Z,3.80
2023-02-17T10:19:43.923Z,3.58
2023-02-17T10:22:16.123Z,4.53
2023-02-17T10:24:42.938Z,5.47
2023-02-17T10:27:17.061Z,3.10
2023-02-17T10:30:06.056Z,6.32
2023-02-17T10:32:47.484Z,4.90
2023-02-17T10:35:17.075Z,5.55
2023-02-17T10:37:59.636Z,3.33
2023-02-17T10:40:29.223Z,5.15
2023-02-17T10:43:03.389Z,3.38
2023-02-17T10:46:00.012Z,4.93
2023-02-17T10:48:35.872Z,4.38
2023-02-17T10:51:03.260Z,3.83
2023-02-17T10:53:37.896Z,3.85
2023-02-17T10:56:17.050Z,4.68
2023-02-17T10:58:55.884Z,3.70
2023-02-17T11:01:25.714Z,3.58
2023-02-17T11:04:07.528Z,5.22
2023-02-17T11:06:49.888Z,4.18
2023-02-17T11:09:34.913Z,3.33
2023-02-17T11:14:47.379Z,3.95
2023-02-17T11:17:17.061Z,3.17
2023-02-17T11:19:56.918Z,3.15
2023-02-17T11:22:38.819Z,3.30
2023-02-17T11:25:17.108Z,2.63
2023-02-17T11:27:54.095Z,3.67
2023-02-17T11:30:21.372Z,3.40
2023-02-17T11:32:48.862Z,3.90
2023-02-17T11:35:16.144Z,3.10
2023-02-17T11:37:43.597Z,5.55
2023-02-17T11:42:41.619Z,4.32
2023-02-17T11:47:47.880Z,2.72
2023-02-17T11:50:19.444Z,2.90
2023-02-17T11:53:19.932Z,4.60
2023-02-17T11:56:17.299Z,2.63
2023-02-17T11:58:59.575Z,2.35
2023-02-17T12:01:44.887Z,2.20
2023-02-17T12:04:17.221Z,2.92
2023-02-17T12:07:08.765Z,2.33
2023-02-17T12:09:44.229Z,3.70
2023-02-17T12:12:16.267Z,2.78
2023-02-17T12:15:04.250Z,2.58
2023-02-17T12:17:51.056Z,2.80
2023-02-17T12:20:54.569Z,3.35
2023-02-17T12:23:24.269Z,2.78
2023-02-17T12:28:59.412Z,2.85
2023-02-17T12:31:49.170Z,4.40
2023-02-17T12:34:17.200Z,3.70
2023-02-17T12:36:44.460Z,2.53
2023-02-17T12:39:17.226Z,3.42
2023-02-17T12:41:51.008Z,4.07
2023-02-17T12:44:23.702Z,3.83
2023-02-17T12:46:54.433Z,3.92
2023-02-17T12:49:31.423Z,3.67
2023-02-17T12:52:06.716Z,3.92
2023-02-17T12:54:48.208Z,2.40
2023-02-17T12:57:16.156Z,5.18
2023-02-17T12:59:58.132Z,4.07
2023-02-17T13:02:27.550Z,3.05
2023-02-17T13:04:57.880Z,4.70
2023-02-17T13:07:47.129Z,4.03
2023-02-17T13:12:41.983Z,3.55
2023-02-17T13:15:16.176Z,4.05
2023-02-17T13:18:01.798Z,4.70
2023-02-17T13:20:44.160Z,3.22
2023-02-17T13:23:14.214Z,3.72
2023-02-17T13:25:41.601Z,4.22
2023-02-17T13:28:16.210Z,4.53
2023-02-17T13:30:45.663Z,3.80
2023-02-17T13:33:16.386Z,3.08
2023-02-17T13:35:43.073Z,6.38
2023-02-17T13:38:10.558Z,3.55
2023-02-17T13:40:42.709Z,3.92
2023-02-17T13:43:16.212Z,3.22
2023-02-17T13:45:46.028Z,3.42
2023-02-17T13:48:16.227Z,4.82
2023-02-17T13:50:48.564Z,4.05
2023-02-17T13:53:16.271Z,2.67
2023-02-17T13:55:44.846Z,2.17
2023-02-17T13:58:11.643Z,4.00
2023-02-17T14:00:39.050Z,3.53
2023-02-17T14:03:17.282Z,3.47
2023-02-17T14:05:46.018Z,4.35
2023-02-17T14:08:16.239Z,3.17
2023-02-17T14:10:43.514Z,2.83
2023-02-17T14:13:14.306Z,4.40
2023-02-17T14:15:59.727Z,3.33
2023-02-17T14:18:44.245Z,3.65
2023-02-17T14:21:17.287Z,2.63
2023-02-17T14:23:51.582Z,2.80
2023-02-17T14:26:35.237Z,3.15
2023-02-17T14:29:05.245Z,4.88
2023-02-17T14:32:03.894Z,2.40
2023-02-17T14:34:34.045Z,6.05
2023-02-17T14:37:17.324Z,2.10
2023-02-17T14:39:44.327Z,4.43
2023-02-17T14:42:11.006Z,3.13
2023-02-17T14:44:38.084Z,3.50
2023-02-17T14:47:04.875Z,3.88
2023-02-17T14:49:31.641Z,2.83
2023-02-17T14:51:58.857Z,2.55
2023-02-17T14:54:27.106Z,4.28
2023-02-17T14:57:06.643Z,2.25
2023-02-17T14:59:34.003Z,5.40
2023-02-17T15:02:00.704Z,4.40
2023-02-17T15:04:27.504Z,2.70
2023-02-17T15:06:55.023Z,2.38
2023-02-17T15:09:30.228Z,5.07
2023-02-17T15:11:58.112Z,3.45
2023-02-17T15:14:25.094Z,3.78
2023-02-17T15:16:51.864Z,2.53
2023-02-17T15:19:19.309Z,3.65
2023-02-17T15:21:49.822Z,2.65
2023-02-17T15:24:23.138Z,3.38
2023-02-17T15:26:52.242Z,2.97
2023-02-17T15:29:24.283Z,4.78
2023-02-17T15:31:53.623Z,2.28
2023-02-17T15:34:23.536Z,3.47
2023-02-17T15:36:50.413Z,3.10
2023-02-17T15:39:19.678Z,5.40
2023-02-17T15:41:48.914Z,3.83
2023-02-17T15:46:44.264Z,3.55
2023-02-17T15:49:12.310Z,3.13
2023-02-17T15:51:40.130Z,3.83
2023-02-17T15:54:09.921Z,3.30
2023-02-17T15:56:51.554Z,3.88
2023-02-17T15:59:21.934Z,3.67
2023-02-17T16:01:49.119Z,3.22
2023-02-17T16:04:22.425Z,4.13
2023-02-17T16:06:49.107Z,4.28
2023-02-17T16:09:18.343Z,2.45
2023-02-17T16:11:51.510Z,4.32
2023-02-17T16:14:32.591Z,4.35
2023-02-17T16:17:17.459Z,3.75
2023-02-17T16:19:44.354Z,4.47
2023-02-17T16:22:11.042Z,4.90
2023-02-17T16:24:37.830Z,7.60
2023-02-17T16:27:11.866Z,3.65
2023-02-17T16:29:38.941Z,3.95
2023-02-17T16:32:05.872Z,3.00
2023-02-17T16:34:33.808Z,5.03
2023-02-17T16:37:19.815Z,3.58
2023-02-17T16:39:49.772Z,4.45
2023-02-17T16:42:17.828Z,3.72
2023-02-17T16:44:52.943Z,3.85
2023-02-17T16:47:22.732Z,4.65
2023-02-17T16:49:50.626Z,4.65
2023-02-17T16:52:24.239Z,3.45
2023-02-17T16:54:51.339Z,4.75
2023-02-17T16:57:20.092Z,4.70
2023-02-17T16:59:48.095Z,4.38
2023-02-17T17:02:14.859Z,4.50
2023-02-17T17:04:41.678Z,5.63
2023-02-17T17:07:14.496Z,7.03
2023-02-17T17:09:43.049Z,9.40
2023-02-17T17:12:13.557Z,10.07
2023-02-17T17:14:40.491Z,7.57
2023-02-17T17:17:12.922Z,25.95
2023-02-17T17:19:39.951Z,18.05
2023-02-17T17:22:07.029Z,9.48
2023-02-17T17:24:33.734Z,13.18
2023-02-17T17:27:11.202Z,6.75
2023-02-17T17:29:37.939Z,6.28
2023-02-17T17:32:05.222Z,7.28
2023-02-17T17:34:32.978Z,5.70
2023-02-17T17:36:59.904Z,4.97
2023-02-17T17:39:26.754Z,5.38
2023-02-17T17:41:53.463Z,10.50
2023-02-17T17:44:20.881Z,5.22
2023-02-17T17:46:48.009Z,8.15
2023-02-17T17:51:42.214Z,6.95
2023-02-17T17:54:10.161Z,5.75
2023-02-17T17:56:39.922Z,8.13
2023-02-17T17:59:06.772Z,8.35
2023-02-17T18:01:34.151Z,7.55
2023-02-17T18:04:01.785Z,5.72
2023-02-17T18:06:40.915Z,6.90
2023-02-17T18:09:15.114Z,5.80
2023-02-17T18:11:43.509Z,6.32
2023-02-17T18:14:13.865Z,7.57
2023-02-17T18:16:44.583Z,7.55
2023-02-17T18:19:12.433Z,5.82
2023-02-17T18:21:40.158Z,5.50
2023-02-17T18:24:07.909Z,6.43
2023-02-17T18:26:35.440Z,5.45
2023-02-17T18:29:02.160Z,6.22
2023-02-17T18:31:30.079Z,5.10
2023-02-17T18:33:57.162Z,6.50
2023-02-17T18:36:27.087Z,6.60
2023-02-17T18:38:54.162Z,5.45
2023-02-17T18:41:27.951Z,7.28
2023-02-17T18:43:56.038Z,5.68
2023-02-17T18:46:25.213Z,7.38
2023-02-17T18:48:54.114Z,7.10
2023-02-17T18:51:23.567Z,6.63
2023-02-17T18:53:51.515Z,7.28
2023-02-17T18:56:23.740Z,6.43
2023-02-17T18:58:52.732Z,9.15
2023-02-17T19:01:26.070Z,5.75
2023-02-17T19:03:53.610Z,5.88
2023-02-17T19:06:23.782Z,7.35
2023-02-17T19:08:51.393Z,5.32
2023-02-17T19:11:20.235Z,5.88
2023-02-17T19:13:49.582Z,7.32
2023-02-17T19:16:17.418Z,6.18
2023-02-17T19:18:45.166Z,7.28
2023-02-17T19:23:42.245Z,6.97
2023-02-17T19:26:14.242Z,6.68
2023-02-17T19:28:42.031Z,6.78
2023-02-17T19:31:14.689Z,6.90
2023-02-17T19:33:43.046Z,6.55
2023-02-17T19:36:13.910Z,6.13
2023-02-17T19:38:40.837Z,6.90
2023-02-17T19:41:14.134Z,5.97
2023-02-17T19:43:41.844Z,7.55
2023-02-17T19:46:12.901Z,6.28
2023-02-17T19:48:40.816Z,6.80
2023-02-17T19:51:09.277Z,8.05
2023-02-17T19:53:43.519Z,7.38
2023-02-17T19:56:23.929Z,5.78
2023-02-17T19:58:51.836Z,5.65
2023-02-17T20:01:22.950Z,4.93
2023-02-17T20:03:55.034Z,6.40
2023-02-17T20:06:25.740Z,7.03
2023-02-17T20:09:01.501Z,6.07
2023-02-17T20:11:32.959Z,6.00
2023-02-17T20:14:01.543Z,5.88
2023-02-17T20:16:30.175Z,5.53
2023-02-17T20:18:58.016Z,5.28
2023-02-17T20:21:29.562Z,4.93
2023-02-17T20:23:57.817Z,5.57
2023-02-17T20:26:28.668Z,6.65
2023-02-17T20:29:01.977Z,5.45
2023-02-17T20:31:29.264Z,6.95
2023-02-17T20:33:56.459Z,4.85
2023-02-17T20:36:23.771Z,6.40
2023-02-17T20:38:51.148Z,5.35
2023-02-17T20:41:20.407Z,4.80
2023-02-17T20:43:47.895Z,6.65
2023-02-17T20:46:17.417Z,6.25
2023-02-17T20:48:44.169Z,4.88
2023-02-17T20:51:10.934Z,5.20
2023-02-17T20:53:38.464Z,6.05
2023-02-17T20:56:13.248Z,4.93
2023-02-17T20:58:40.628Z,8.40
2023-02-17T21:01:08.049Z,5.80
2023-02-17T21:03:35.325Z,6.07
2023-02-17T21:06:04.677Z,6.50
2023-02-17T21:08:31.441Z,6.65
2023-02-17T21:10:58.221Z,7.43
2023-02-17T21:13:24.892Z,7.95
2023-02-17T21:15:51.811Z,5.18
2023-02-17T21:18:18.626Z,7.18
2023-02-17T21:20:45.492Z,6.38
2023-02-17T21:23:12.277Z,8.55
2023-02-17T21:25:38.966Z,6.82
2023-02-17T21:28:05.791Z,6.97
2023-02-17T21:30:32.606Z,6.30
2023-02-17T21:32:59.646Z,7.13
2023-02-17T21:35:26.450Z,5.50
2023-02-17T21:37:54.989Z,7.28
2023-02-17T21:40:22.439Z,7.75
2023-02-17T21:43:11.556Z,7.70
2023-02-17T21:45:39.531Z,7.03
2023-02-17T21:48:07.487Z,9.73
2023-02-17T21:50:36.122Z,8.15
2023-02-17T21:53:03.047Z,7.07
2023-02-17T21:55:29.949Z,10.05
2023-02-17T21:57:56.864Z,6.90
2023-02-17T22:00:23.660Z,6.55
2023-02-17T22:02:50.987Z,8.63
2023-02-17T22:05:17.758Z,9.48
2023-02-17T22:07:55.242Z,6.32
2023-02-17T22:10:22.053Z,7.50
2023-02-17T22:12:49.130Z,7.50
2023-02-17T22:15:20.904Z,8.85
2023-02-17T22:17:50.922Z,8.07
2023-02-17T22:20:19.610Z,9.00
2023-02-17T22:22:46.987Z,9.35
2023-02-17T22:25:13.710Z,8.98
2023-02-17T22:27:40.865Z,8.95
2023-02-17T22:30:09.157Z,10.38
2023-02-17T22:32:36.712Z,9.27
2023-02-17T22:35:07.314Z,9.68
2023-02-17T22:37:37.851Z,8.93
2023-02-17T22:40:05.253Z,9.90
2023-02-17T22:42:31.959Z,9.07
2023-02-17T22:44:58.642Z,9.02
2023-02-17T22:47:25.443Z,8.65
2023-02-17T22:49:52.481Z,9.57
2023-02-17T22:52:19.633Z,9.10
2023-02-17T22:54:46.398Z,8.93
2023-02-17T22:57:14.139Z,8.85
2023-02-17T22:59:43.714Z,13.25
2023-02-17T23:02:13.199Z,9.05
2023-02-17T23:04:40.018Z,9.43
2023-02-17T23:07:06.819Z,8.90
2023-02-17T23:09:33.579Z,10.63
2023-02-17T23:12:01.103Z,11.93
2023-02-17T23:14:38.745Z,9.93
2023-02-17T23:17:11.350Z,11.25
2023-02-17T23:19:39.508Z,10.95
2023-02-17T23:22:10.116Z,12.90
2023-02-17T23:24:37.316Z,11.25
2023-02-17T23:27:04.789Z,9.77
2023-02-17T23:29:32.591Z,9.80
2023-02-17T23:31:59.909Z,7.97
2023-02-17T23:34:28.490Z,13.88
2023-02-17T23:36:55.417Z,14.70
2023-02-17T23:39:22.847Z,12.98
2023-02-17T23:41:49.547Z,14.40
2023-02-17T23:44:18.641Z,14.77
2023-02-17T23:46:45.769Z,15.85
2023-02-17T23:51:42.791Z,15.23
2023-02-17T23:54:09.858Z,16.90
2023-02-17T23:56:36.854Z,17.42
2023-02-17T23:59:10.416Z,16.67
